Time;durP1;ratioP1;P1;durP2;ratioP2;P2;SDS_P1;SDS_P2;PMS_P1;PMS_P2;Temp;Humidity;BMP_temperature;BMP_pressure;BME280_temperature;BME280_humidity;BME280_pressure;Samples;Min_cycle;Max_cycle;Signal;HPM_P1;HPM_P2
2023/03/22 00:00:54;;;;;;;15.63;7.50;;;9.50;99.90;;;;;;5070244;28;20397;-56
2023/03/22 00:03:21;;;;;;;15.40;6.45;;;9.70;99.90;;;;;;5071542;28;20353;-56
2023/03/22 00:05:47;;;;;;;17.13;6.72;;;9.60;99.90;;;;;;5071425;28;20052;-56
2023/03/22 00:08:13;;;;;;;17.52;6.32;;;9.50;99.90;;;;;;5071918;28;20051;-56
2023/03/22 00:10:40;;;;;;;21.77;6.93;;;9.30;99.90;;;;;;5074982;28;20499;-56
2023/03/22 00:13:09;;;;;;;12.77;5.18;;;9.60;99.90;;;;;;5075888;28;20056;-56
2023/03/22 00:15:35;;;;;;;13.43;4.00;;;9.60;99.90;;;;;;5077753;28;20191;-56
2023/03/22 00:18:02;;;;;;;9.40;4.47;;;9.60;99.90;;;;;;5075851;28;20040;-57
2023/03/22 00:20:35;;;;;;;9.68;4.13;;;9.50;99.90;;;;;;5075746;28;20104;-56
2023/03/22 00:23:01;;;;;;;11.40;3.80;;;9.50;99.90;;;;;;5075710;28;20420;-56
2023/03/22 00:25:27;;;;;;;22.30;5.70;;;9.60;99.90;;;;;;5075066;28;20044;-55
2023/03/22 00:27:53;;;;;;;16.88;3.60;;;9.40;99.90;;;;;;5076381;28;20462;-56
2023/03/22 00:30:19;;;;;;;9.18;3.05;;;9.50;99.90;;;;;;5075099;28;20488;-57
2023/03/22 00:32:45;;;;;;;14.60;4.53;;;9.40;99.90;;;;;;5075138;28;20039;-57
2023/03/22 00:35:10;;;;;;;12.85;3.05;;;9.40;99.90;;;;;;5072540;28;20526;-56
2023/03/22 00:37:37;;;;;;;10.52;2.85;;;9.30;99.90;;;;;;5074248;28;20046;-56
2023/03/22 00:40:11;;;;;;;13.80;2.70;;;9.40;99.90;;;;;;5074737;28;20039;-56
2023/03/22 00:42:39;;;;;;;10.80;3.20;;;9.40;99.90;;;;;;5075351;28;20714;-57
2023/03/22 00:45:07;;;;;;;12.70;2.75;;;9.40;99.90;;;;;;5073942;28;20147;-57
2023/03/22 00:47:33;;;;;;;10.32;3.08;;;9.40;99.90;;;;;;5074208;28;20044;-56
2023/03/22 00:50:00;;;;;;;9.93;2.22;;;9.40;99.90;;;;;;5074320;28;20048;-56
2023/03/22 00:52:26;;;;;;;11.45;2.42;;;9.40;99.90;;;;;;5073329;28;21014;-57
2023/03/22 00:54:52;;;;;;;9.27;2.25;;;9.30;99.90;;;;;;5073603;28;20040;-56
2023/03/22 00:57:17;;;;;;;10.15;2.30;;;9.20;99.90;;;;;;5073656;28;20036;-57
2023/03/22 00:59:43;;;;;;;9.23;2.38;;;9.10;99.90;;;;;;5074590;28;20747;-57
2023/03/22 01:02:12;;;;;;;11.98;2.35;;;9.20;99.90;;;;;;5074220;28;20093;-57
2023/03/22 01:04:45;;;;;;;13.13;3.03;;;9.50;99.90;;;;;;5074433;28;20592;-56
2023/03/22 01:07:20;;;;;;;11.63;2.83;;;9.30;99.90;;;;;;5088806;28;20105;-56
2023/03/22 01:09:49;;;;;;;10.25;2.40;;;9.30;99.90;;;;;;5073731;28;20036;-57
2023/03/22 01:12:16;;;;;;;11.15;2.15;;;9.20;99.90;;;;;;5073654;28;20040;-57
2023/03/22 01:14:42;;;;;;;8.25;1.83;;;9.50;99.90;;;;;;5075400;28;20043;-56
2023/03/22 01:17:09;;;;;;;11.73;2.42;;;9.20;99.90;;;;;;5073903;28;20108;-57
2023/03/22 01:19:35;;;;;;;11.98;2.67;;;9.30;99.90;;;;;;5072640;28;20059;-56
2023/03/22 01:22:03;;;;;;;15.40;2.90;;;9.20;99.90;;;;;;5073852;28;20048;-57
2023/03/22 01:24:28;;;;;;;8.60;1.73;;;9.30;99.90;;;;;;5074494;28;20083;-56
2023/03/22 01:26:54;;;;;;;12.27;1.92;;;9.50;99.90;;;;;;5074165;28;20086;-57
2023/03/22 01:29:20;;;;;;;13.55;2.67;;;9.20;99.90;;;;;;5073554;28;20083;-56
2023/03/22 01:31:46;;;;;;;9.30;1.80;;;9.20;99.90;;;;;;5073480;28;20365;-57
2023/03/22 01:34:11;;;;;;;15.93;3.25;;;9.00;99.90;;;;;;5074327;28;20047;-57
2023/03/22 01:36:37;;;;;;;13.13;2.08;;;9.10;99.90;;;;;;5073084;28;20046;-57
2023/03/22 01:39:03;;;;;;;10.43;2.10;;;9.00;99.90;;;;;;5072905;28;20043;-57
2023/03/22 01:41:33;;;;;;;10.50;1.88;;;9.20;99.90;;;;;;5072527;28;20043;-56
2023/03/22 01:44:15;;;;;;;9.70;1.83;;;9.20;99.90;;;;;;5074009;28;20047;-56
2023/03/22 01:46:45;;;;;;;9.82;1.60;;;9.10;99.90;;;;;;5073758;28;21192;-56
2023/03/22 01:49:33;;;;;;;10.45;1.98;;;9.20;99.90;;;;;;5072114;28;20040;-57
2023/03/22 01:52:03;;;;;;;8.05;1.75;;;9.10;99.90;;;;;;5073980;28;20048;-57
2023/03/22 01:54:37;;;;;;;11.20;1.92;;;9.20;99.90;;;;;;5073701;28;20043;-56
2023/03/22 01:57:03;;;;;;;6.40;1.70;;;9.10;99.90;;;;;;5073384;28;20131;-56
2023/03/22 01:59:29;;;;;;;8.05;1.60;;;9.10;99.90;;;;;;5073669;28;20047;-57
2023/03/22 02:01:58;;;;;;;12.35;1.88;;;9.10;99.90;;;;;;5074701;28;20054;-57
2023/03/22 02:04:32;;;;;;;13.57;1.85;;;9.20;99.90;;;;;;5073560;28;20032;-56
2023/03/22 02:07:01;;;;;;;11.85;1.60;;;9.20;99.90;;;;;;5074186;28;20501;-56
2023/03/22 02:09:28;;;;;;;14.05;2.38;;;9.10;99.90;;;;;;5074651;28;20043;-56
2023/03/22 02:12:06;;;;;;;13.55;2.67;;;9.20;99.90;;;;;;5073385;28;20051;-56
2023/03/22 02:14:59;;;;;;;10.50;2.10;;;9.00;99.90;;;;;;5073735;28;20059;-57
2023/03/22 02:18:00;;;;;;;13.90;2.25;;;9.00;99.90;;;;;;5072235;28;20036;-57
2023/03/22 02:20:59;;;;;;;10.68;2.45;;;9.30;99.90;;;;;;5049266;28;20033;-56
2023/03/22 02:24:05;;;;;;;11.32;1.73;;;9.10;99.90;;;;;;5085992;28;20134;-57
2023/03/22 02:26:50;;;;;;;8.40;1.70;;;9.20;99.90;;;;;;5073184;28;20044;-56
2023/03/22 02:29:31;;;;;;;9.50;1.80;;;9.30;99.90;;;;;;5072112;28;20040;-56
2023/03/22 02:31:57;;;;;;;12.80;2.22;;;8.90;99.90;;;;;;5070843;28;20123;-57
2023/03/22 02:34:43;;;;;;;12.52;1.73;;;9.10;99.90;;;;;;5072828;28;20421;-55
2023/03/22 02:37:48;;;;;;;14.40;2.10;;;9.30;99.90;;;;;;5073069;28;20048;-57
2023/03/22 02:40:16;;;;;;;8.02;1.58;;;9.20;99.90;;;;;;5066298;28;20051;-56
2023/03/22 02:42:45;;;;;;;8.60;1.55;;;9.10;99.90;;;;;;5071747;28;20158;-56
2023/03/22 02:45:22;;;;;;;9.30;1.75;;;9.10;99.90;;;;;;5072021;28;20730;-56
2023/03/22 02:47:57;;;;;;;8.63;2.15;;;9.10;99.90;;;;;;5071613;28;20052;-56
2023/03/22 02:50:49;;;;;;;11.50;1.60;;;9.10;99.90;;;;;;5071518;28;20044;-57
2023/03/22 02:53:34;;;;;;;9.55;1.92;;;9.00;99.90;;;;;;5071362;28;20618;-57
2023/03/22 02:56:23;;;;;;;14.90;2.00;;;9.20;99.90;;;;;;5071364;28;20040;-56
2023/03/22 02:58:52;;;;;;;13.07;2.10;;;9.10;99.90;;;;;;5071134;28;20127;-57
2023/03/22 03:01:21;;;;;;;9.55;1.95;;;9.10;99.90;;;;;;5070978;28;20028;-57
2023/03/22 03:03:49;;;;;;;13.23;2.08;;;9.30;99.90;;;;;;5070878;28;21032;-57
2023/03/22 03:06:21;;;;;;;11.25;1.83;;;9.10;99.90;;;;;;5072409;28;20079;-57
2023/03/22 03:08:52;;;;;;;8.73;1.80;;;9.20;99.90;;;;;;5072949;28;20048;-56
2023/03/22 03:11:18;;;;;;;12.70;1.88;;;9.40;99.90;;;;;;5073121;28;20122;-57
2023/03/22 03:13:48;;;;;;;12.70;2.08;;;9.30;99.90;;;;;;5071754;28;20047;-57
2023/03/22 03:16:25;;;;;;;11.23;1.67;;;9.20;99.90;;;;;;5072586;28;20039;-57
2023/03/22 03:19:09;;;;;;;12.80;1.85;;;9.20;99.90;;;;;;5072796;28;20044;-57
2023/03/22 03:22:04;;;;;;;11.90;1.92;;;9.20;99.90;;;;;;5071615;28;20036;-57
2023/03/22 03:24:45;;;;;;;10.80;1.85;;;9.20;99.90;;;;;;5040240;28;20066;-57
2023/03/22 03:27:16;;;;;;;13.82;2.17;;;9.30;99.90;;;;;;5071286;28;20038;-56
2023/03/22 03:29:51;;;;;;;10.20;2.47;;;9.20;99.90;;;;;;5071353;28;20127;-56
2023/03/22 03:32:34;;;;;;;12.93;2.40;;;9.40;99.90;;;;;;5071529;28;20032;-57
2023/03/22 03:35:02;;;;;;;;;;;9.00;99.90;;;;;;5071824;28;20161;-56
2023/03/22 03:37:49;;;;;;;12.52;1.70;;;9.20;99.90;;;;;;5071313;28;20758;-57
2023/03/22 03:40:21;;;;;;;13.48;3.03;;;9.20;99.90;;;;;;5071461;28;20387;-56
2023/03/22 03:42:50;;;;;;;9.60;1.88;;;9.20;99.90;;;;;;5073780;28;20105;-57
2023/03/22 03:45:18;;;;;;;10.80;2.28;;;9.40;99.90;;;;;;5075861;28;20262;-57
2023/03/22 03:47:45;;;;;;;11.15;2.42;;;9.20;99.90;;;;;;5075252;28;20044;-57
2023/03/22 03:50:14;;;;;;;14.93;2.00;;;9.10;99.90;;;;;;5073575;28;20036;-56
2023/03/22 03:52:40;;;;;;;13.23;3.17;;;9.00;99.90;;;;;;5075544;28;20481;-56
2023/03/22 03:55:07;;;;;;;11.75;2.50;;;9.10;99.90;;;;;;5076263;28;20048;-56
2023/03/22 03:57:32;;;;;;;13.45;2.88;;;9.00;99.90;;;;;;5074401;28;20079;-57
2023/03/22 03:59:58;;;;;;;13.70;3.03;;;9.20;99.90;;;;;;5073453;28;20131;-57
2023/03/22 04:02:24;;;;;;;12.40;3.15;;;9.00;99.90;;;;;;5074438;28;20069;-56
2023/03/22 04:04:49;;;;;;;13.35;2.90;;;9.20;99.90;;;;;;5075183;28;20124;-57
2023/03/22 04:07:15;;;;;;;13.00;3.08;;;9.00;99.90;;;;;;5074093;28;20489;-57
2023/03/22 04:09:41;;;;;;;13.73;2.75;;;9.00;99.90;;;;;;5073011;28;20040;-56
2023/03/22 04:12:10;;;;;;;15.75;3.55;;;9.10;99.90;;;;;;5075379;28;20047;-57
2023/03/22 04:14:36;;;;;;;12.90;4.13;;;8.90;99.90;;;;;;5075607;28;20032;-57
2023/03/22 04:17:02;;;;;;;13.65;3.00;;;9.00;99.90;;;;;;5075233;28;20051;-56
2023/03/22 04:19:27;;;;;;;11.27;2.97;;;9.30;99.90;;;;;;5072212;28;20036;-57
2023/03/22 04:21:53;;;;;;;14.88;2.85;;;10.40;99.90;;;;;;5074280;28;20088;-56
2023/03/22 04:24:20;;;;;;;11.77;3.03;;;9.40;99.90;;;;;;5075534;28;20405;-57
2023/03/22 04:26:46;;;;;;;12.55;3.25;;;9.00;99.90;;;;;;5074919;28;20111;-56
2023/03/22 04:29:12;;;;;;;11.88;2.60;;;9.20;99.90;;;;;;5074130;28;20092;-56
2023/03/22 04:31:38;;;;;;;10.18;2.38;;;9.00;99.90;;;;;;5073587;28;20042;-56
2023/03/22 04:34:04;;;;;;;12.90;2.90;;;9.10;99.90;;;;;;5074923;28;20055;-56
2023/03/22 04:36:35;;;;;;;10.13;2.28;;;9.10;99.90;;;;;;5075883;28;20040;-57
2023/03/22 04:39:04;;;;;;;9.45;2.28;;;9.00;99.90;;;;;;5075831;28;20047;-56
2023/03/22 04:41:30;;;;;;;14.85;3.15;;;9.10;99.90;;;;;;5075013;28;20123;-57
2023/03/22 04:43:56;;;;;;;10.27;2.88;;;8.90;99.90;;;;;;5075295;28;20032;-56
2023/03/22 04:46:23;;;;;;;10.43;2.67;;;8.90;99.90;;;;;;5076661;28;20097;-56
2023/03/22 04:48:49;;;;;;;9.00;2.63;;;8.80;99.90;;;;;;5074639;28;20055;-56
2023/03/22 04:51:14;;;;;;;8.65;3.50;;;9.30;99.90;;;;;;5075012;28;20028;-56
2023/03/22 04:53:40;;;;;;;8.77;3.58;;;9.20;99.90;;;;;;5074248;28;20527;-56
2023/03/22 04:56:09;;;;;;;13.88;3.70;;;9.00;99.90;;;;;;5075675;28;20039;-56
2023/03/22 04:58:38;;;;;;;12.63;3.88;;;8.80;99.90;;;;;;5074906;28;20140;-57
2023/03/22 05:01:04;;;;;;;14.35;4.15;;;9.00;99.90;;;;;;5074430;28;20400;-56
2023/03/22 05:03:30;;;;;;;13.45;4.32;;;9.00;99.90;;;;;;5072596;28;20412;-57
2023/03/22 05:05:58;;;;;;;13.80;6.15;;;9.10;99.90;;;;;;5074599;28;20036;-56
2023/03/22 05:08:24;;;;;;;9.45;4.82;;;9.10;99.90;;;;;;5074089;28;22524;-57
2023/03/22 05:10:52;;;;;;;13.57;4.72;;;9.20;99.90;;;;;;5074964;28;20082;-56
2023/03/22 05:13:18;;;;;;;13.98;5.95;;;9.30;99.90;;;;;;5074008;28;20047;-56
2023/03/22 05:15:46;;;;;;;17.70;6.55;;;9.20;99.90;;;;;;5073954;28;20043;-57
2023/03/22 05:18:13;;;;;;;11.82;6.53;;;9.10;99.90;;;;;;5073863;28;20052;-57
2023/03/22 05:20:40;;;;;;;13.73;7.13;;;9.30;99.90;;;;;;5072903;28;20051;-57
2023/03/22 05:23:06;;;;;;;21.25;7.25;;;9.30;99.90;;;;;;5073740;28;20055;-56
2023/03/22 05:25:32;;;;;;;15.20;6.95;;;9.20;99.90;;;;;;5073893;28;20571;-57
2023/03/22 05:28:00;;;;;;;12.00;6.22;;;9.00;99.90;;;;;;5072963;28;20051;-56
2023/03/22 05:30:30;;;;;;;15.90;7.63;;;9.00;99.90;;;;;;5073621;28;20073;-56
2023/03/22 05:33:03;;;;;;;15.40;7.03;;;9.50;99.90;;;;;;5073579;28;20075;-56
2023/03/22 05:35:30;;;;;;;14.63;8.07;;;9.20;99.90;;;;;;5073786;28;20692;-56
2023/03/22 05:37:57;;;;;;;15.20;7.72;;;9.20;99.90;;;;;;5072664;28;20867;-57
2023/03/22 05:40:23;;;;;;;13.38;7.93;;;9.30;99.90;;;;;;5072893;28;20160;-57
2023/03/22 05:42:49;;;;;;;17.63;8.27;;;9.00;99.90;;;;;;5073868;28;20036;-56
2023/03/22 05:45:16;;;;;;;17.33;8.55;;;9.10;99.90;;;;;;5072657;28;20040;-57
2023/03/22 05:47:42;;;;;;;16.60;8.10;;;9.30;99.90;;;;;;5073436;28;20051;-56
2023/03/22 05:50:09;;;;;;;17.33;7.93;;;9.10;99.90;;;;;;5073968;28;20403;-57
2023/03/22 05:52:35;;;;;;;19.08;8.73;;;9.30;99.90;;;;;;5073804;28;20040;-56
2023/03/22 05:55:01;;;;;;;16.63;9.45;;;9.40;99.90;;;;;;5073687;28;20098;-57
2023/03/22 05:57:28;;;;;;;17.92;8.30;;;9.10;99.90;;;;;;5074881;28;20157;-56
2023/03/22 05:59:55;;;;;;;18.98;8.27;;;9.20;99.90;;;;;;5073068;28;20401;-57
2023/03/22 06:02:21;;;;;;;18.85;8.82;;;9.30;99.90;;;;;;5073315;28;20036;-56
2023/03/22 06:04:48;;;;;;;14.43;8.55;;;9.30;99.90;;;;;;5072568;28;20052;-56
2023/03/22 06:07:14;;;;;;;17.85;9.27;;;9.30;99.90;;;;;;5073593;28;20451;-56
2023/03/22 06:09:40;;;;;;;18.85;9.07;;;9.30;99.90;;;;;;5072844;28;20538;-56
2023/03/22 06:12:06;;;;;;;18.75;9.55;;;9.40;99.90;;;;;;5072438;28;20048;-56
2023/03/22 06:14:32;;;;;;;19.02;8.57;;;9.40;99.90;;;;;;5073055;28;20031;-56
2023/03/22 06:16:58;;;;;;;19.48;9.50;;;9.50;99.90;;;;;;5073479;28;20745;-57
2023/03/22 06:19:24;;;;;;;16.90;9.70;;;9.50;99.90;;;;;;5071646;28;20565;-56
2023/03/22 06:21:52;;;;;;;20.33;9.75;;;9.60;99.90;;;;;;5072502;28;20398;-56
2023/03/22 06:24:18;;;;;;;17.40;9.32;;;9.40;99.90;;;;;;5072734;28;20090;-56
2023/03/22 06:26:44;;;;;;;17.30;9.10;;;9.50;99.90;;;;;;5071821;28;20042;-56
2023/03/22 06:29:10;;;;;;;18.85;9.70;;;9.30;99.90;;;;;;5071441;28;20564;-57
2023/03/22 06:31:36;;;;;;;19.10;9.98;;;9.70;99.90;;;;;;5071214;28;21150;-56
2023/03/22 06:34:03;;;;;;;18.75;9.77;;;9.50;99.90;;;;;;5072694;28;20051;-57
2023/03/22 06:36:29;;;;;;;18.50;10.50;;;9.50;99.90;;;;;;5070831;28;20243;-57
2023/03/22 06:38:56;;;;;;;22.65;10.77;;;9.70;99.90;;;;;;5072554;28;20995;-57
2023/03/22 06:41:22;;;;;;;17.85;9.63;;;9.50;99.90;;;;;;5072029;28;20039;-57
2023/03/22 06:43:48;;;;;;;19.83;10.32;;;9.50;99.90;;;;;;5072945;28;20043;-57
2023/03/22 06:46:13;;;;;;;19.23;10.25;;;9.70;99.90;;;;;;5072962;28;20039;-57
2023/03/22 06:48:39;;;;;;;20.80;11.70;;;9.80;99.90;;;;;;5071838;28;20132;-57
2023/03/22 06:51:05;;;;;;;19.80;9.68;;;9.90;99.90;;;;;;5071938;28;20047;-57
2023/03/22 06:53:31;;;;;;;15.93;9.90;;;9.90;99.90;;;;;;5073297;28;20170;-57
2023/03/22 06:55:57;;;;;;;18.52;10.32;;;9.90;99.90;;;;;;5071996;28;20036;-57
2023/03/22 06:58:22;;;;;;;19.15;9.13;;;10.10;99.90;;;;;;5071631;28;20064;-57
2023/03/22 07:00:48;;;;;;;17.63;9.73;;;10.20;99.90;;;;;;5071860;28;20238;-58
2023/03/22 07:03:14;;;;;;;17.15;10.65;;;10.10;99.90;;;;;;5072464;28;20408;-56
2023/03/22 07:05:39;;;;;;;20.50;9.68;;;10.20;99.90;;;;;;5071842;28;20736;-57
2023/03/22 07:08:05;;;;;;;21.38;9.98;;;10.50;99.90;;;;;;5071404;28;20040;-57
2023/03/22 07:10:31;;;;;;;16.20;8.60;;;10.30;99.90;;;;;;5072380;28;20040;-57
2023/03/22 07:12:57;;;;;;;17.77;9.52;;;10.40;99.90;;;;;;5073332;28;20073;-57
2023/03/22 07:15:23;;;;;;;17.35;9.45;;;10.20;99.90;;;;;;5072534;28;20050;-57
2023/03/22 07:17:50;;;;;;;17.58;9.75;;;10.30;99.90;;;;;;5073586;28;20261;-56
2023/03/22 07:20:17;;;;;;;21.35;9.85;;;10.30;99.90;;;;;;5072803;28;20148;-56
2023/03/22 07:22:43;;;;;;;21.08;9.45;;;10.10;99.90;;;;;;5072921;28;20094;-57
2023/03/22 07:25:09;;;;;;;15.57;9.07;;;9.90;99.90;;;;;;5072420;28;20044;-57
2023/03/22 07:27:35;;;;;;;16.45;8.25;;;10.20;99.90;;;;;;5072380;28;20056;-57
2023/03/22 07:30:02;;;;;;;16.67;8.50;;;10.20;99.90;;;;;;5074022;28;20039;-57
2023/03/22 07:32:28;;;;;;;19.73;8.70;;;10.30;99.90;;;;;;5073135;28;20629;-56
2023/03/22 07:34:53;;;;;;;19.15;8.82;;;10.20;99.90;;;;;;5071485;28;20047;-57
2023/03/22 07:37:19;;;;;;;16.98;8.65;;;10.30;99.90;;;;;;5072841;28;20360;-57
2023/03/22 07:39:45;;;;;;;22.27;9.18;;;8.50;99.90;;;;;;5071756;28;20408;-56
2023/03/22 07:42:11;;;;;;;16.73;8.57;;;10.20;99.90;;;;;;5071696;28;21057;-56
2023/03/22 07:44:36;;;;;;;17.85;8.05;;;10.10;99.90;;;;;;5071631;28;20043;-57
2023/03/22 07:47:02;;;;;;;16.05;8.65;;;10.00;99.90;;;;;;5073435;28;20040;-56
2023/03/22 07:49:30;;;;;;;18.00;7.93;;;10.10;99.90;;;;;;5070928;28;20040;-57
2023/03/22 07:51:55;;;;;;;19.42;8.00;;;10.20;99.90;;;;;;5071849;28;20093;-57
2023/03/22 07:54:21;;;;;;;14.02;7.43;;;10.20;99.90;;;;;;5071468;28;20043;-57
2023/03/22 07:56:47;;;;;;;16.10;6.90;;;10.50;99.90;;;;;;5071172;28;20044;-57
2023/03/22 07:59:15;;;;;;;17.75;7.93;;;10.50;99.90;;;;;;5071248;28;20036;-56
2023/03/22 08:01:42;;;;;;;14.90;6.43;;;10.80;99.90;;;;;;5071174;28;20036;-56
2023/03/22 08:04:07;;;;;;;20.15;6.70;;;10.50;99.90;;;;;;5071150;28;20036;-57
2023/03/22 08:06:35;;;;;;;14.52;6.80;;;10.50;99.90;;;;;;5071414;28;20048;-57
2023/03/22 08:09:03;;;;;;;15.35;5.90;;;10.40;99.90;;;;;;5072305;28;20119;-56
2023/03/22 08:11:29;;;;;;;13.70;6.20;;;10.60;99.90;;;;;;5070957;28;20523;-57
2023/03/22 08:13:55;;;;;;;13.80;5.95;;;10.60;99.90;;;;;;5071275;28;20056;-57
2023/03/22 08:16:21;;;;;;;15.43;5.82;;;10.50;99.90;;;;;;5069432;28;20036;-57
2023/03/22 08:18:47;;;;;;;17.65;6.72;;;10.50;99.90;;;;;;5071956;28;20113;-57
2023/03/22 08:21:13;;;;;;;16.95;6.47;;;10.70;99.90;;;;;;5072751;28;20144;-57
2023/03/22 08:23:39;;;;;;;14.80;5.88;;;10.70;99.90;;;;;;5070383;28;20048;-57
2023/03/22 08:26:05;;;;;;;15.65;5.90;;;10.80;99.90;;;;;;5071105;28;20774;-57
2023/03/22 08:28:31;;;;;;;15.38;6.30;;;10.80;99.90;;;;;;5071504;28;20040;-57
2023/03/22 08:30:56;;;;;;;15.05;6.45;;;10.70;99.90;;;;;;5074856;28;20040;-56
2023/03/22 08:33:22;;;;;;;15.15;6.20;;;10.60;99.90;;;;;;5074381;28;20052;-57
2023/03/22 08:35:49;;;;;;;19.50;5.85;;;10.60;99.90;;;;;;5075633;28;20512;-57
2023/03/22 08:38:15;;;;;;;15.60;6.15;;;10.80;99.90;;;;;;5075650;28;20078;-56
2023/03/22 08:40:44;;;;;;;12.68;5.78;;;10.30;99.90;;;;;;5075311;28;20040;-57
2023/03/22 08:43:10;;;;;;;12.50;5.57;;;10.80;99.90;;;;;;5074751;28;20287;-56
2023/03/22 08:45:36;;;;;;;13.18;5.25;;;10.90;99.90;;;;;;5074921;28;20663;-57
2023/03/22 08:48:02;;;;;;;16.70;5.10;;;11.00;99.90;;;;;;5076438;28;20051;-57
2023/03/22 08:50:28;;;;;;;13.10;4.68;;;10.80;99.90;;;;;;5075173;28;20145;-57
2023/03/22 08:52:53;;;;;;;13.98;4.65;;;11.00;99.90;;;;;;5073179;28;20435;-57
2023/03/22 08:55:19;;;;;;;12.93;5.75;;;11.00;99.90;;;;;;5075795;28;20135;-57
2023/03/22 08:57:49;;;;;;;19.85;6.00;;;11.30;99.90;;;;;;5074731;28;20044;-57
2023/03/22 09:00:16;;;;;;;14.35;5.10;;;11.00;99.90;;;;;;5074638;28;20405;-57
2023/03/22 09:02:42;;;;;;;14.35;5.13;;;10.90;99.90;;;;;;5075101;28;20032;-55
2023/03/22 09:05:09;;;;;;;14.73;5.70;;;12.60;99.90;;;;;;5074780;28;20044;-57
2023/03/22 09:07:35;;;;;;;13.20;5.10;;;10.90;99.90;;;;;;5074385;28;20384;-57
2023/03/22 09:10:00;;;;;;;13.02;4.30;;;10.80;99.90;;;;;;5073808;28;20040;-57
2023/03/22 09:12:28;;;;;;;17.08;5.40;;;10.70;99.90;;;;;;5074168;28;20036;-57
2023/03/22 09:14:54;;;;;;;10.93;4.57;;;10.90;99.90;;;;;;5074173;28;20044;-57
2023/03/22 09:17:19;;;;;;;12.07;4.40;;;11.10;99.90;;;;;;5075279;28;20039;-55
2023/03/22 09:19:46;;;;;;;18.10;4.55;;;11.20;99.90;;;;;;5074328;28;20101;-57
2023/03/22 09:22:13;;;;;;;13.63;4.03;;;11.00;99.90;;;;;;5073769;28;20550;-57
2023/03/22 09:24:39;;;;;;;10.55;3.35;;;11.20;99.90;;;;;;5073856;28;20076;-56
2023/03/22 09:27:04;;;;;;;14.27;4.10;;;11.00;99.90;;;;;;5074380;28;20044;-57
2023/03/22 09:29:30;;;;;;;11.38;4.00;;;11.20;99.90;;;;;;5074114;28;20044;-56
2023/03/22 09:31:56;;;;;;;12.65;3.55;;;10.90;99.90;;;;;;5073973;28;20577;-57
2023/03/22 09:34:22;;;;;;;11.45;4.03;;;10.80;99.90;;;;;;5073482;28;20103;-57
2023/03/22 09:36:48;;;;;;;14.60;4.38;;;10.60;99.90;;;;;;5074592;28;20182;-56
2023/03/22 09:39:15;;;;;;;11.07;3.10;;;10.80;99.90;;;;;;5073108;28;20070;-56
2023/03/22 09:41:48;;;;;;;12.85;4.20;;;10.60;99.90;;;;;;5073399;28;20621;-57
2023/03/22 09:44:32;;;;;;;11.07;3.60;;;10.90;99.90;;;;;;5073362;28;20105;-57
2023/03/22 09:47:00;;;;;;;20.48;4.95;;;10.70;99.90;;;;;;5073012;28;20044;-57
2023/03/22 09:49:38;;;;;;;16.80;3.47;;;10.50;99.90;;;;;;5073491;28;20059;-57
2023/03/22 09:52:11;;;;;;;17.13;4.10;;;11.00;99.90;;;;;;5074254;28;20124;-56
2023/03/22 09:54:39;;;;;;;14.77;3.70;;;10.50;99.90;;;;;;5074729;28;20644;-57
2023/03/22 09:57:23;;;;;;;10.27;3.35;;;10.50;99.90;;;;;;5074360;28;20040;-57
2023/03/22 10:00:14;;;;;;;10.05;3.15;;;10.40;99.90;;;;;;5072682;28;20048;-57
2023/03/22 10:02:52;;;;;;;12.23;3.85;;;10.40;99.90;;;;;;5072783;28;20048;-56
2023/03/22 10:05:40;;;;;;;12.85;3.50;;;10.30;99.90;;;;;;5073840;28;20036;-57
2023/03/22 10:08:27;;;;;;;14.35;4.53;;;10.40;99.90;;;;;;5074230;28;20475;-57
2023/03/22 10:10:53;;;;;;;13.40;4.15;;;10.30;99.90;;;;;;5074138;28;20604;-57
2023/03/22 10:13:31;;;;;;;17.15;4.07;;;10.20;99.90;;;;;;5073339;28;20044;-57
2023/03/22 10:16:00;;;;;;;12.07;3.45;;;10.30;99.90;;;;;;5074457;28;20467;-57
2023/03/22 10:18:42;;;;;;;10.75;4.00;;;10.10;99.90;;;;;;5074496;28;20032;-57
2023/03/22 10:21:10;;;;;;;14.68;5.10;;;9.80;99.90;;;;;;5073557;28;20062;-57
2023/03/22 10:23:49;;;;;;;15.27;4.30;;;10.10;99.90;;;;;;5072545;28;20159;-56
2023/03/22 10:26:31;;;;;;;14.07;3.75;;;10.00;99.90;;;;;;5073889;28;20056;-56
2023/03/22 10:29:26;;;;;;;10.52;4.03;;;10.00;99.90;;;;;;5073445;28;20504;-57
2023/03/22 10:31:53;;;;;;;12.52;5.18;;;9.90;99.90;;;;;;5073225;28;20059;-57
2023/03/22 10:34:32;;;;;;;12.45;4.03;;;9.80;99.90;;;;;;5072629;28;20043;-56
2023/03/22 10:37:02;;;;;;;9.90;3.22;;;9.90;99.90;;;;;;5072380;28;20068;-57
2023/03/22 10:39:32;;;;;;;12.43;4.03;;;9.70;99.90;;;;;;5072056;28;20051;-57
2023/03/22 10:42:03;;;;;;;12.15;4.20;;;9.90;99.90;;;;;;5072348;28;20043;-56
2023/03/22 10:44:34;;;;;;;13.55;4.15;;;9.80;99.90;;;;;;5072004;28;20096;-56
2023/03/22 10:47:06;;;;;;;11.25;4.10;;;9.70;99.90;;;;;;5072290;28;20139;-57
2023/03/22 10:49:41;;;;;;;16.15;4.18;;;9.80;99.90;;;;;;5072833;28;20044;-56
2023/03/22 10:52:39;;;;;;;11.15;3.58;;;9.50;99.90;;;;;;5072929;28;20044;-57
2023/03/22 10:55:10;;;;;;;8.48;3.85;;;9.80;99.90;;;;;;5070362;28;20625;-57
2023/03/22 10:57:38;;;;;;;9.13;3.47;;;8.10;99.90;;;;;;5071968;28;20044;-56
2023/03/22 11:00:10;;;;;;;12.05;4.28;;;9.80;99.90;;;;;;5071761;28;20875;-57
2023/03/22 11:02:43;;;;;;;;;;;9.90;99.90;;;;;;5071142;28;20127;-56
2023/03/22 11:05:22;;;;;;;8.65;3.58;;;9.80;99.90;;;;;;5071518;28;19928;-57
2023/03/22 11:07:48;;;;;;;11.02;3.50;;;10.10;99.90;;;;;;5070437;28;20155;-57
2023/03/22 11:10:26;;;;;;;11.55;3.20;;;9.80;99.90;;;;;;5072439;28;20044;-55
2023/03/22 11:13:08;;;;;;;10.63;3.75;;;10.00;99.90;;;;;;5071692;28;20063;-56
2023/03/22 11:15:35;;;;;;;;;;;9.90;99.90;;;;;;5072992;28;20044;-56
2023/03/22 11:18:11;;;;;;;8.32;4.10;;;10.10;99.90;;;;;;5072315;28;20015;-57
2023/03/22 11:20:40;;;;;;;9.90;4.25;;;10.20;99.90;;;;;;5073130;28;20160;-57
2023/03/22 11:23:10;;;;;;;10.18;4.60;;;10.10;99.90;;;;;;5072678;28;20048;-57
2023/03/22 11:25:43;;;;;;;9.63;4.15;;;10.00;99.90;;;;;;5072141;28;20639;-57
2023/03/22 11:28:55;;;;;;;10.30;4.68;;;10.10;99.90;;;;;;5072837;28;20070;-56
2023/03/22 11:31:23;;;;;;;13.47;3.57;;;9.80;99.90;;;;;;5064848;28;20694;-56
2023/03/22 11:33:57;;;;;;;7.85;3.28;;;10.20;99.90;;;;;;5073005;28;20389;-56
2023/03/22 11:36:24;;;;;;;10.23;3.50;;;9.90;99.90;;;;;;5072644;28;20039;-56
2023/03/22 11:39:00;;;;;;;10.60;3.80;;;10.20;99.90;;;;;;5073554;28;20135;-57
2023/03/22 11:41:34;;;;;;;10.70;4.47;;;10.00;99.90;;;;;;5072713;28;20028;-56
2023/03/22 11:44:03;;;;;;;11.18;3.67;;;10.10;99.90;;;;;;5072361;28;20074;-56
2023/03/22 11:46:30;;;;;;;9.43;3.88;;;8.90;99.90;;;;;;5071931;28;20035;-56
2023/03/22 11:49:00;;;;;;;11.07;3.47;;;10.30;99.90;;;;;;5073731;28;20105;-57
2023/03/22 11:51:31;;;;;;;9.52;3.53;;;10.20;99.90;;;;;;5072999;28;20045;-57
2023/03/22 11:54:22;;;;;;;11.95;4.03;;;10.20;99.90;;;;;;5072591;28;20370;-56
2023/03/22 11:56:49;;;;;;;11.60;3.72;;;10.40;99.90;;;;;;5072290;28;20044;-57
2023/03/22 11:59:27;;;;;;;9.57;3.67;;;10.10;99.90;;;;;;5070688;28;20040;-56
2023/03/22 12:02:14;;;;;;;10.20;3.63;;;10.00;99.90;;;;;;5072592;28;20082;-56
2023/03/22 12:04:43;;;;;;;10.00;3.90;;;9.70;99.90;;;;;;5072552;28;20077;-56
2023/03/22 12:07:15;;;;;;;9.73;4.47;;;10.40;99.90;;;;;;5074952;28;20089;-57
2023/03/22 12:09:48;;;;;;;10.40;3.72;;;10.20;99.90;;;;;;5074196;28;20505;-56
2023/03/22 12:12:23;;;;;;;13.35;4.05;;;10.40;99.90;;;;;;5075630;28;20036;-57
2023/03/22 12:14:59;;;;;;;15.38;4.15;;;10.20;99.90;;;;;;5075771;28;20062;-56
2023/03/22 12:17:34;;;;;;;10.43;4.13;;;10.30;99.90;;;;;;5073858;28;20512;-56
2023/03/22 12:20:07;;;;;;;10.20;3.47;;;10.30;99.90;;;;;;5075519;28;20475;-56
2023/03/22 12:22:49;;;;;;;11.77;3.25;;;10.30;99.90;;;;;;5074087;28;20189;-57
2023/03/22 12:25:22;;;;;;;10.25;3.00;;;10.30;99.90;;;;;;5074310;28;20051;-56
2023/03/22 12:27:52;;;;;;;12.38;3.67;;;10.20;99.90;;;;;;5074418;28;20448;-57
2023/03/22 12:30:28;;;;;;;12.23;3.80;;;10.50;99.90;;;;;;5074994;28;20038;-55
2023/03/22 12:33:17;;;;;;;11.95;3.70;;;10.20;99.90;;;;;;5075895;28;20052;-56
2023/03/22 12:35:44;;;;;;;12.52;3.85;;;10.20;99.90;;;;;;5069193;28;20062;-57
2023/03/22 12:38:42;;;;;;;13.25;3.83;;;10.20;99.90;;;;;;5074740;28;20567;-56
2023/03/22 12:41:15;;;;;;;10.48;4.38;;;10.30;99.90;;;;;;5075855;28;20048;-57
2023/03/22 12:43:53;;;;;;;12.63;3.63;;;10.10;99.90;;;;;;5075537;28;20044;-56
2023/03/22 12:46:53;;;;;;;11.05;3.75;;;10.20;99.90;;;;;;5075165;28;20076;-57
2023/03/22 12:49:28;;;;;;;10.95;3.78;;;10.00;99.90;;;;;;5074165;28;20063;-56
2023/03/22 12:52:03;;;;;;;9.63;3.97;;;10.10;99.90;;;;;;5075665;28;20151;-56
2023/03/22 12:54:29;;;;;;;12.70;3.95;;;12.00;99.90;;;;;;5074416;28;20044;-56
2023/03/22 12:56:55;;;;;;;13.98;4.28;;;10.20;99.90;;;;;;5075483;28;21049;-55
2023/03/22 12:59:25;;;;;;;11.98;5.15;;;10.10;99.90;;;;;;5074182;28;21215;-57
2023/03/22 13:02:17;;;;;;;8.57;3.97;;;10.10;99.90;;;;;;5075762;28;20534;-56